createdAt,value
2022-08-11T00:01:49.134Z,47.91
2022-08-11T00:02:52.789Z,47.90
2022-08-11T00:03:57.147Z,47.88
2022-08-11T00:05:12.027Z,47.90
2022-08-11T00:06:15.692Z,47.90
2022-08-11T00:07:18.010Z,47.86
2022-08-11T00:08:26.458Z,47.84
2022-08-11T00:09:39.746Z,47.85
2022-08-11T00:10:39.265Z,47.91
2022-08-11T00:11:48.078Z,47.98
2022-08-11T00:12:58.532Z,47.93
2022-08-11T00:14:02.222Z,47.99
2022-08-11T00:15:07.585Z,47.97
2022-08-11T00:16:20.157Z,47.96
2022-08-11T00:17:22.507Z,47.97
2022-08-11T00:18:25.341Z,47.93
2022-08-11T00:20:14.733Z,47.89
2022-08-11T00:20:36.116Z,47.87
2022-08-11T00:22:04.029Z,47.84
2022-08-11T00:22:46.006Z,47.84
2022-08-11T00:23:59.933Z,47.88
2022-08-11T00:26:24.957Z,47.79
2022-08-11T00:27:34.754Z,47.79
2022-08-11T00:28:38.510Z,47.81
2022-08-11T00:29:51.681Z,47.84
2022-08-11T00:30:46.267Z,47.87
2022-08-11T00:33:02.466Z,47.84
2022-08-11T00:34:10.139Z,47.92
2022-08-11T00:35:53.803Z,47.93
2022-08-11T00:36:25.341Z,47.95
2022-08-11T00:37:24.728Z,47.95
2022-08-11T00:39:50.858Z,47.93
2022-08-11T00:41:17.457Z,47.92
2022-08-11T00:42:48.387Z,47.90
2022-08-11T00:43:59.419Z,47.96
2022-08-11T00:45:05.724Z,47.95
2022-08-11T00:46:27.716Z,47.95
2022-08-11T00:47:37.350Z,47.99
2022-08-11T00:49:18.743Z,48.04
2022-08-11T00:50:43.322Z,48.08
2022-08-11T00:52:14.369Z,48.09
2022-08-11T00:53:41.910Z,48.10
2022-08-11T00:54:57.997Z,48.11
2022-08-11T00:58:08.515Z,48.13
2022-08-11T00:59:36.031Z,48.16
2022-08-11T01:00:59.003Z,48.22
2022-08-11T01:02:16.993Z,48.23
2022-08-11T01:03:35.222Z,48.27
2022-08-11T01:06:58.286Z,48.31
2022-08-11T01:08:24.163Z,48.33
2022-08-11T01:09:51.622Z,48.39
2022-08-11T01:10:57.801Z,48.40
2022-08-11T01:12:27.985Z,48.40
2022-08-11T01:15:30.215Z,48.44
2022-08-11T01:16:51.412Z,48.47
2022-08-11T01:18:18.537Z,48.54
2022-08-11T01:20:45.212Z,48.52
2022-08-11T01:20:51.730Z,48.50
2022-08-11T01:25:57.930Z,48.46
2022-08-11T01:27:40.198Z,48.57
2022-08-11T01:29:04.370Z,48.53
2022-08-11T01:30:30.864Z,48.53
2022-08-11T01:31:57.177Z,48.57
2022-08-11T01:35:29.501Z,48.52
2022-08-11T01:36:56.706Z,48.54
2022-08-11T01:38:03.236Z,48.54
2022-08-11T01:39:24.288Z,48.57
2022-08-11T01:42:18.071Z,48.59
2022-08-11T01:45:07.441Z,48.65
2022-08-11T01:50:08.887Z,48.60
2022-08-11T01:50:58.279Z,48.58
2022-08-11T01:52:30.260Z,48.60
2022-08-11T01:54:06.070Z,48.55
2022-08-11T01:55:18.885Z,48.50
2022-08-11T01:58:22.282Z,48.57
2022-08-11T01:59:34.933Z,48.59
2022-08-11T02:00:56.482Z,48.63
2022-08-11T02:02:02.961Z,48.59
2022-08-11T02:03:18.083Z,48.66
2022-08-11T02:04:27.242Z,48.67
2022-08-11T02:05:40.864Z,48.66
2022-08-11T02:07:08.802Z,48.70
2022-08-11T02:10:03.890Z,48.60
2022-08-11T02:11:12.822Z,48.58
2022-08-11T02:12:17.982Z,48.55
2022-08-11T02:13:40.907Z,48.53
2022-08-11T02:15:15.437Z,48.58
2022-08-11T02:18:24.201Z,48.56
2022-08-11T02:19:53.143Z,48.58
2022-08-11T02:20:58.367Z,48.62
2022-08-11T02:22:05.433Z,48.65
2022-08-11T02:24:03.696Z,48.67
2022-08-11T02:26:08.677Z,48.69
2022-08-11T02:27:17.769Z,48.67
2022-08-11T02:29:45.362Z,48.65
2022-08-11T02:30:55.522Z,48.69
2022-08-11T02:33:54.355Z,48.60
2022-08-11T02:35:26.287Z,48.58
2022-08-11T02:36:56.325Z,48.65
2022-08-11T02:38:26.816Z,48.57
2022-08-11T02:41:10.214Z,48.59
2022-08-11T02:42:36.125Z,48.68
2022-08-11T02:43:42.288Z,48.67
2022-08-11T02:45:14.555Z,48.65
2022-08-11T02:46:30.594Z,48.69
2022-08-11T02:49:43.153Z,48.66
2022-08-11T02:51:09.888Z,48.59
2022-08-11T02:52:17.010Z,48.65
2022-08-11T02:53:32.721Z,48.60
2022-08-11T02:55:46.013Z,48.70
2022-08-11T02:56:47.454Z,48.72
2022-08-11T02:57:56.235Z,48.64
2022-08-11T02:59:17.426Z,48.65
2022-08-11T03:00:22.247Z,48.68
2022-08-11T03:02:59.200Z,48.80
2022-08-11T03:04:08.121Z,48.81
2022-08-11T03:06:50.328Z,48.72
2022-08-11T03:08:26.342Z,48.79
2022-08-11T03:09:41.695Z,48.74
2022-08-11T03:10:57.970Z,48.77
2022-08-11T03:12:13.058Z,48.75
2022-08-11T03:13:30.178Z,48.86
2022-08-11T03:16:34.289Z,48.81
2022-08-11T03:17:39.582Z,48.83
2022-08-11T03:23:19.763Z,48.88
2022-08-11T03:24:20.408Z,48.93
2022-08-11T03:25:35.372Z,48.93
2022-08-11T03:26:58.817Z,48.88
2022-08-11T03:28:10.723Z,48.83
2022-08-11T03:29:28.327Z,48.80
2022-08-11T03:30:43.998Z,48.85
2022-08-11T03:31:53.276Z,48.76
2022-08-11T03:34:22.347Z,48.79
2022-08-11T03:35:25.005Z,48.84
2022-08-11T03:37:16.225Z,48.86
2022-08-11T03:38:02.230Z,48.87
2022-08-11T03:39:14.522Z,48.87
2022-08-11T03:40:25.225Z,48.87
2022-08-11T03:42:03.887Z,48.86
2022-08-11T03:43:02.324Z,48.87
2022-08-11T03:44:37.821Z,48.77
2022-08-11T03:46:02.383Z,48.80
2022-08-11T03:47:25.888Z,48.84
2022-08-11T03:48:43.949Z,48.77
2022-08-11T03:50:01.949Z,48.72
2022-08-11T03:52:49.874Z,48.64
2022-08-11T03:54:14.265Z,48.67
2022-08-11T03:55:41.095Z,48.74
2022-08-11T03:56:56.937Z,48.72
2022-08-11T03:58:21.461Z,48.72
2022-08-11T03:59:43.385Z,48.75
2022-08-11T04:01:02.337Z,48.63
2022-08-11T04:02:31.222Z,48.67
2022-08-11T04:03:55.501Z,48.55
2022-08-11T04:05:18.331Z,48.52
2022-08-11T04:06:37.793Z,48.64
2022-08-11T04:07:55.761Z,48.62
2022-08-11T04:09:19.384Z,48.63
2022-08-11T04:10:49.089Z,48.61
2022-08-11T04:12:06.822Z,48.62
2022-08-11T04:13:19.209Z,48.69
2022-08-11T04:14:25.464Z,48.57
2022-08-11T04:15:52.908Z,48.73
2022-08-11T04:17:25.275Z,48.70
2022-08-11T04:18:51.493Z,48.70
2022-08-11T04:20:31.351Z,48.81
2022-08-11T04:22:03.413Z,48.84
2022-08-11T04:24:35.058Z,48.81
2022-08-11T04:25:10.820Z,48.82
2022-08-11T04:26:35.073Z,48.89
2022-08-11T04:27:54.223Z,48.87
2022-08-11T04:29:36.162Z,48.94
2022-08-11T04:31:49.587Z,48.95
2022-08-11T04:32:28.663Z,49.02
2022-08-11T04:33:57.074Z,49.03
2022-08-11T04:35:12.903Z,48.97
2022-08-11T04:36:25.406Z,48.98
2022-08-11T04:39:13.019Z,49.09
2022-08-11T04:42:08.120Z,49.17
2022-08-11T04:46:40.718Z,49.05
2022-08-11T04:48:04.840Z,49.01
2022-08-11T04:49:45.746Z,49.13
2022-08-11T04:51:08.988Z,49.03
2022-08-11T04:52:23.156Z,49.05
2022-08-11T04:53:46.011Z,49.15
2022-08-11T04:56:16.181Z,49.00
2022-08-11T04:57:45.212Z,48.95
2022-08-11T05:00:05.211Z,48.99
2022-08-11T05:01:21.436Z,48.94
2022-08-11T05:02:48.818Z,48.91
2022-08-11T05:04:29.938Z,48.94
2022-08-11T05:05:56.563Z,49.00
2022-08-11T05:07:28.377Z,49.04
2022-08-11T05:08:54.250Z,49.02
2022-08-11T05:10:22.768Z,49.04
2022-08-11T05:12:03.960Z,49.05
2022-08-11T05:13:06.300Z,49.00
2022-08-11T05:14:15.725Z,48.96
2022-08-11T05:15:20.923Z,49.07
2022-08-11T05:17:59.920Z,49.16
2022-08-11T05:19:05.728Z,49.07
2022-08-11T05:20:10.729Z,49.13
2022-08-11T05:21:13.410Z,49.12
2022-08-11T05:22:17.525Z,49.13
2022-08-11T05:23:19.780Z,49.06
2022-08-11T05:24:23.886Z,49.09
2022-08-11T05:26:44.377Z,49.11
2022-08-11T05:28:04.763Z,49.01
2022-08-11T05:30:38.209Z,48.86
2022-08-11T05:31:44.154Z,48.87
2022-08-11T05:32:49.333Z,48.81
2022-08-11T05:33:54.798Z,48.92
2022-08-11T05:34:58.308Z,48.87
2022-08-11T05:36:12.496Z,48.80
2022-08-11T05:37:26.605Z,48.72
2022-08-11T05:38:24.802Z,48.63
2022-08-11T05:39:36.209Z,48.55
2022-08-11T05:40:33.270Z,48.67
2022-08-11T05:41:35.747Z,48.59
2022-08-11T05:42:41.702Z,48.49
2022-08-11T05:44:20.925Z,48.45
2022-08-11T05:44:49.619Z,48.36
2022-08-11T05:46:06.229Z,48.29
2022-08-11T05:47:08.098Z,47.70
2022-08-11T05:48:10.579Z,48.19
2022-08-11T05:49:13.607Z,48.68
2022-08-11T05:50:18.335Z,49.12
2022-08-11T05:51:30.528Z,49.56
2022-08-11T05:52:31.968Z,49.89
2022-08-11T05:53:33.186Z,50.16
2022-08-11T05:54:37.388Z,50.28
2022-08-11T05:56:56.511Z,50.86
2022-08-11T05:58:04.966Z,51.13
2022-08-11T05:59:12.729Z,51.23
2022-08-11T06:00:16.974Z,51.22
2022-08-11T06:01:27.353Z,51.77
2022-08-11T06:02:31.720Z,51.59
2022-08-11T06:03:34.799Z,51.67
2022-08-11T06:04:39.615Z,51.79
2022-08-11T06:05:43.879Z,52.14
2022-08-11T06:06:55.372Z,52.57
2022-08-11T06:07:57.674Z,52.39
2022-08-11T06:08:59.830Z,52.48
2022-08-11T06:10:02.669Z,52.61
2022-08-11T06:11:05.567Z,52.79
2022-08-11T06:12:10.642Z,52.90
2022-08-11T06:13:16.335Z,53.05
2022-08-11T06:14:19.954Z,53.13
2022-08-11T06:15:23.100Z,53.13
2022-08-11T06:16:26.087Z,53.20
2022-08-11T06:17:38.533Z,53.37
2022-08-11T06:18:34.212Z,53.56
2022-08-11T06:19:42.315Z,53.75
2022-08-11T06:22:03.270Z,53.84
2022-08-11T06:23:06.464Z,53.94
2022-08-11T06:25:33.318Z,53.74
2022-08-11T06:26:49.639Z,53.99
2022-08-11T06:27:42.022Z,53.90
2022-08-11T06:28:45.665Z,54.08
2022-08-11T06:31:03.027Z,54.02
2022-08-11T06:32:05.608Z,53.81
2022-08-11T06:34:56.114Z,53.81
2022-08-11T06:36:16.690Z,54.14
2022-08-11T06:37:25.430Z,54.14
2022-08-11T06:38:34.451Z,53.74
2022-08-11T06:39:40.637Z,53.67
2022-08-11T06:42:10.210Z,53.57
2022-08-11T06:43:21.156Z,53.39
2022-08-11T06:44:31.639Z,53.26
2022-08-11T06:45:56.775Z,53.05
2022-08-11T06:47:08.894Z,52.84
2022-08-11T06:48:19.677Z,52.81
2022-08-11T06:49:23.811Z,52.65
2022-08-11T06:50:28.971Z,52.41
2022-08-11T06:51:34.630Z,52.23
2022-08-11T06:52:38.303Z,52.35
2022-08-11T06:54:03.039Z,52.27
2022-08-11T06:54:53.262Z,52.15
2022-08-11T06:55:58.945Z,51.74
2022-08-11T06:57:28.243Z,51.85
2022-08-11T06:58:05.471Z,51.72
2022-08-11T06:59:11.019Z,51.65
2022-08-11T07:00:17.153Z,51.68
2022-08-11T07:01:50.155Z,51.61
2022-08-11T07:03:06.607Z,51.41
2022-08-11T07:04:09.205Z,51.27
2022-08-11T07:05:24.085Z,51.19
2022-08-11T07:06:51.248Z,51.06
2022-08-11T07:09:33.330Z,50.96
2022-08-11T07:11:09.350Z,50.92
2022-08-11T07:12:24.541Z,50.73
2022-08-11T07:13:39.436Z,50.73
2022-08-11T07:14:37.776Z,50.65
2022-08-11T07:16:09.107Z,50.59
2022-08-11T07:16:42.051Z,50.59
2022-08-11T07:17:50.456Z,50.58
2022-08-11T07:18:55.949Z,50.55
2022-08-11T07:19:59.225Z,50.42
2022-08-11T07:22:00.297Z,50.35
2022-08-11T07:22:21.225Z,50.29
2022-08-11T07:23:23.681Z,50.01
2022-08-11T07:24:59.609Z,50.01
2022-08-11T07:25:47.436Z,50.12
2022-08-11T07:26:52.261Z,49.98
2022-08-11T07:28:13.866Z,49.89
2022-08-11T07:29:18.077Z,49.80
2022-08-11T07:30:22.240Z,49.70
2022-08-11T07:31:36.249Z,49.57
2022-08-11T07:34:07.923Z,49.51
2022-08-11T07:35:09.877Z,49.51
2022-08-11T07:36:14.026Z,49.49
2022-08-11T07:37:16.902Z,49.51
2022-08-11T07:38:29.053Z,49.44
2022-08-11T07:39:32.251Z,49.49
2022-08-11T07:40:35.455Z,49.50
2022-08-11T07:41:38.229Z,49.45
2022-08-11T07:42:41.002Z,49.44
2022-08-11T07:43:44.486Z,49.45
2022-08-11T07:44:47.292Z,49.48
2022-08-11T07:45:49.544Z,49.61
2022-08-11T07:46:52.600Z,49.77
2022-08-11T07:47:54.869Z,49.81
2022-08-11T07:48:57.065Z,49.86
2022-08-11T07:49:59.586Z,49.95
2022-08-11T07:51:02.055Z,49.98
2022-08-11T07:52:04.509Z,49.99
2022-08-11T07:53:07.087Z,50.02
2022-08-11T07:54:17.171Z,50.01
2022-08-11T07:55:14.883Z,50.02
2022-08-11T07:56:19.619Z,50.06
2022-08-11T07:57:51.466Z,50.02
2022-08-11T07:58:30.009Z,50.00
2022-08-11T08:00:00.175Z,49.98
2022-08-11T08:00:47.058Z,49.94
2022-08-11T08:01:51.877Z,49.96
2022-08-11T08:02:54.318Z,49.96
2022-08-11T08:03:58.682Z,49.92
2022-08-11T08:05:01.129Z,49.94
2022-08-11T08:06:04.948Z,49.99
2022-08-11T08:07:09.164Z,50.16
2022-08-11T08:08:13.319Z,50.28
2022-08-11T08:09:17.428Z,50.29
2022-08-11T08:10:20.724Z,50.28
2022-08-11T08:11:27.387Z,50.30
2022-08-11T08:12:28.126Z,50.27
2022-08-11T08:13:31.795Z,50.29
2022-08-11T08:14:34.365Z,50.22
2022-08-11T08:15:36.994Z,50.19
2022-08-11T08:16:40.742Z,50.21
2022-08-11T08:17:43.188Z,50.11
2022-08-11T08:18:46.812Z,50.14
2022-08-11T08:19:49.146Z,50.00
2022-08-11T08:20:51.955Z,49.96
2022-08-11T08:21:54.781Z,49.82
2022-08-11T08:23:01.484Z,49.77
2022-08-11T08:24:06.306Z,49.73
2022-08-11T08:25:09.549Z,49.73
2022-08-11T08:26:16.919Z,49.66
2022-08-11T08:27:19.114Z,49.58
2022-08-11T08:28:21.338Z,49.64
2022-08-11T08:29:24.412Z,49.66
2022-08-11T08:30:28.077Z,49.70
2022-08-11T08:31:30.603Z,49.69
2022-08-11T08:32:34.472Z,49.64
2022-08-11T08:33:37.156Z,49.70
2022-08-11T08:34:40.114Z,49.68
2022-08-11T08:35:54.505Z,49.69
2022-08-11T08:36:49.712Z,49.66
2022-08-11T08:37:53.148Z,49.68
2022-08-11T08:38:55.509Z,49.68
2022-08-11T08:39:57.954Z,49.68
2022-08-11T08:41:00.457Z,49.69
2022-08-11T08:42:11.306Z,49.70
2022-08-11T08:43:15.414Z,49.68
2022-08-11T08:44:37.908Z,49.69
2022-08-11T08:45:23.702Z,49.70
2022-08-11T08:46:29.928Z,49.69
2022-08-11T08:48:50.442Z,49.59
2022-08-11T08:51:13.248Z,49.68
2022-08-11T08:52:31.767Z,49.68
2022-08-11T08:53:26.345Z,49.70
2022-08-11T08:55:45.568Z,49.67
2022-08-11T08:56:49.532Z,49.62
2022-08-11T08:57:52.069Z,49.53
2022-08-11T08:58:54.462Z,49.78
2022-08-11T08:59:56.882Z,50.07
2022-08-11T09:00:59.675Z,50.46
2022-08-11T09:02:04.166Z,50.77
2022-08-11T09:03:36.085Z,51.15
2022-08-11T09:04:12.845Z,51.42
2022-08-11T09:05:18.161Z,51.83
2022-08-11T09:06:21.383Z,52.32
2022-08-11T09:07:24.386Z,52.60
2022-08-11T09:08:27.712Z,52.96
2022-08-11T09:09:30.234Z,53.21
2022-08-11T09:10:32.966Z,53.25
2022-08-11T09:11:36.800Z,53.47
2022-08-11T09:12:40.048Z,53.41
2022-08-11T09:13:42.538Z,53.61
2022-08-11T09:14:47.517Z,54.11
2022-08-11T09:15:56.163Z,54.47
2022-08-11T09:16:57.225Z,54.86
2022-08-11T09:18:00.783Z,55.20
2022-08-11T09:19:03.150Z,55.46
2022-08-11T09:20:08.306Z,55.32
2022-08-11T09:22:25.992Z,55.30
2022-08-11T09:24:34.054Z,55.42
2022-08-11T09:25:37.640Z,55.53
2022-08-11T09:26:40.259Z,55.65
2022-08-11T09:27:50.399Z,55.82
2022-08-11T09:28:47.152Z,55.93
2022-08-11T09:29:49.654Z,55.98
2022-08-11T09:30:52.389Z,55.97
2022-08-11T09:31:54.567Z,55.97
2022-08-11T09:33:01.328Z,56.09
2022-08-11T09:34:05.277Z,56.16
2022-08-11T09:35:08.689Z,56.34
2022-08-11T09:36:12.541Z,56.28
2022-08-11T09:37:19.569Z,56.39
2022-08-11T09:38:20.904Z,56.76
2022-08-11T09:39:24.023Z,56.67
2022-08-11T09:40:27.676Z,56.74
2022-08-11T09:42:01.068Z,56.65
2022-08-11T09:42:36.284Z,56.72
2022-08-11T09:43:41.807Z,56.70
2022-08-11T09:44:44.122Z,56.56
2022-08-11T09:45:48.524Z,56.71
2022-08-11T09:46:52.080Z,56.63
2022-08-11T09:47:55.619Z,56.61
2022-08-11T09:48:58.957Z,56.60
2022-08-11T09:50:02.958Z,56.47
2022-08-11T09:51:06.869Z,56.50
2022-08-11T09:52:10.343Z,56.63
2022-08-11T09:53:36.573Z,56.72
2022-08-11T09:54:18.038Z,56.95
2022-08-11T09:55:20.504Z,57.12
2022-08-11T09:56:24.512Z,57.04
2022-08-11T09:57:26.868Z,57.04
2022-08-11T09:58:42.288Z,57.12
2022-08-11T09:59:33.935Z,57.41
2022-08-11T10:00:36.982Z,57.28
2022-08-11T10:01:42.821Z,57.28
2022-08-11T10:02:46.977Z,57.14
2022-08-11T10:03:49.329Z,57.38
2022-08-11T10:04:51.460Z,57.37
2022-08-11T10:05:59.184Z,57.63
2022-08-11T10:07:04.461Z,57.74
2022-08-11T10:08:09.837Z,57.54
2022-08-11T10:09:15.000Z,57.26
2022-08-11T10:10:19.682Z,57.10
2022-08-11T10:11:22.677Z,57.26
2022-08-11T10:12:34.039Z,57.32
2022-08-11T10:14:10.550Z,57.48
2022-08-11T10:14:45.065Z,57.06
2022-08-11T10:16:03.632Z,57.22
2022-08-11T10:16:53.067Z,57.31
2022-08-11T10:17:58.461Z,57.32
2022-08-11T10:19:01.555Z,57.08
2022-08-11T10:20:06.272Z,56.98
2022-08-11T10:21:18.099Z,56.98
2022-08-11T10:22:20.693Z,57.01
2022-08-11T10:23:24.881Z,56.88
2022-08-11T10:24:28.830Z,56.93
2022-08-11T10:25:31.175Z,56.97
2022-08-11T10:26:34.149Z,57.31
2022-08-11T10:28:28.188Z,57.40
2022-08-11T10:29:09.632Z,57.32
2022-08-11T10:29:49.574Z,57.21
2022-08-11T10:30:52.982Z,57.21
2022-08-11T10:31:59.453Z,57.26
2022-08-11T10:33:03.645Z,57.33
2022-08-11T10:34:08.044Z,57.21
2022-08-11T10:35:12.586Z,57.23
2022-08-11T10:36:17.919Z,57.27
2022-08-11T10:37:22.532Z,57.18
2022-08-11T10:38:26.835Z,57.08
2022-08-11T10:39:29.265Z,57.23
2022-08-11T10:40:33.137Z,57.09
2022-08-11T10:42:07.373Z,56.97
2022-08-11T10:42:58.413Z,56.73
2022-08-11T10:44:04.144Z,56.92
2022-08-11T10:45:07.655Z,57.02
2022-08-11T10:46:12.544Z,57.05
2022-08-11T10:47:16.070Z,57.00
2022-08-11T10:48:18.383Z,57.26
2022-08-11T10:49:21.009Z,57.13
2022-08-11T10:50:23.639Z,57.23
2022-08-11T10:51:50.075Z,57.29
2022-08-11T10:52:31.233Z,57.32
2022-08-11T10:54:48.979Z,57.27
2022-08-11T10:55:51.793Z,57.17
2022-08-11T10:56:54.958Z,56.50
2022-08-11T10:58:04.361Z,56.50
2022-08-11T10:59:04.102Z,56.91
2022-08-11T11:00:10.627Z,57.00
2022-08-11T11:01:14.735Z,57.04
2022-08-11T11:02:17.435Z,57.02
2022-08-11T11:03:23.193Z,57.09
2022-08-11T11:04:38.325Z,57.35
2022-08-11T11:06:27.745Z,57.30
2022-08-11T11:07:01.437Z,57.25
2022-08-11T11:08:12.083Z,57.16
2022-08-11T11:09:17.991Z,57.17
2022-08-11T11:10:23.262Z,57.08
2022-08-11T11:11:26.853Z,57.03
2022-08-11T11:12:44.086Z,56.92
2022-08-11T11:13:55.160Z,56.80
2022-08-11T11:14:58.762Z,56.77
2022-08-11T11:15:59.362Z,56.88
2022-08-11T11:17:04.731Z,56.69
2022-08-11T11:18:20.052Z,56.86
2022-08-11T11:19:22.694Z,56.66
2022-08-11T11:21:39.533Z,56.38
2022-08-11T11:22:44.966Z,56.33
2022-08-11T11:24:10.975Z,56.15
2022-08-11T11:26:58.719Z,55.94
2022-08-11T11:29:53.278Z,56.10
2022-08-11T11:31:34.337Z,56.22
2022-08-11T11:32:52.122Z,56.06
2022-08-11T11:34:07.162Z,56.10
2022-08-11T11:35:09.293Z,56.21
2022-08-11T11:37:39.091Z,56.66
2022-08-11T11:38:42.492Z,56.75
2022-08-11T11:39:45.256Z,56.82
2022-08-11T11:40:48.105Z,56.90
2022-08-11T11:41:53.376Z,57.25
2022-08-11T11:42:58.614Z,57.43
2022-08-11T11:44:01.484Z,57.33
2022-08-11T11:45:06.146Z,57.25
2022-08-11T11:46:09.476Z,57.35
2022-08-11T11:47:11.939Z,57.35
2022-08-11T11:48:14.201Z,57.36
2022-08-11T11:49:17.595Z,57.40
2022-08-11T11:50:34.230Z,57.44
2022-08-11T11:51:37.986Z,57.57
2022-08-11T11:52:40.535Z,57.60
2022-08-11T11:53:43.324Z,57.69
2022-08-11T11:55:59.275Z,57.75
2022-08-11T11:57:02.240Z,57.83
2022-08-11T11:58:04.829Z,57.75
2022-08-11T11:59:07.893Z,57.69
2022-08-11T12:00:13.775Z,57.49
2022-08-11T12:01:16.340Z,57.29
2022-08-11T12:02:19.520Z,57.14
2022-08-11T12:03:23.050Z,57.00
2022-08-11T12:04:26.691Z,56.94
2022-08-11T12:05:29.477Z,56.97
2022-08-11T12:06:33.671Z,56.90
2022-08-11T12:07:39.975Z,56.78
2022-08-11T12:08:43.833Z,56.84
2022-08-11T12:09:46.322Z,56.94
2022-08-11T12:10:53.813Z,57.22
2022-08-11T12:11:56.347Z,57.22
2022-08-11T12:13:01.573Z,57.03
2022-08-11T12:14:10.776Z,57.02
2022-08-11T12:15:11.148Z,56.79
2022-08-11T12:16:34.149Z,56.84
2022-08-11T12:17:18.514Z,56.80
2022-08-11T12:18:20.921Z,56.68
2022-08-11T12:19:24.085Z,56.67
2022-08-11T12:20:31.810Z,56.47
2022-08-11T12:21:33.343Z,56.54
2022-08-11T12:22:36.854Z,56.50
2022-08-11T12:23:39.208Z,56.30
2022-08-11T12:24:42.800Z,56.44
2022-08-11T12:25:46.447Z,56.45
2022-08-11T12:26:54.278Z,56.38
2022-08-11T12:27:54.181Z,56.89
2022-08-11T12:28:56.767Z,56.89
2022-08-11T12:30:00.620Z,56.45
2022-08-11T12:31:03.132Z,56.50
2022-08-11T12:32:06.512Z,56.45
2022-08-11T12:33:08.740Z,56.49
2022-08-11T12:35:25.715Z,56.08
2022-08-11T12:36:32.313Z,56.12
2022-08-11T12:38:51.468Z,56.18
2022-08-11T12:40:16.940Z,56.12
2022-08-11T12:42:23.981Z,56.06
2022-08-11T12:43:38.958Z,56.03
2022-08-11T12:44:36.025Z,55.92
2022-08-11T12:45:38.448Z,55.98
2022-08-11T12:46:41.937Z,56.02
2022-08-11T12:48:40.249Z,56.08
2022-08-11T12:48:58.412Z,56.18
2022-08-11T12:50:01.224Z,56.31
2022-08-11T12:51:11.695Z,56.22
2022-08-11T12:52:17.001Z,56.19
2022-08-11T12:53:25.245Z,56.16
2022-08-11T12:54:41.412Z,56.17
2022-08-11T12:56:04.081Z,56.11
2022-08-11T12:56:52.131Z,56.02
2022-08-11T12:57:55.083Z,56.04
2022-08-11T12:58:58.149Z,55.96
2022-08-11T13:00:01.155Z,56.03
2022-08-11T13:01:04.835Z,56.12
2022-08-11T13:02:10.295Z,56.09
2022-08-11T13:03:14.504Z,56.11
2022-08-11T13:04:18.033Z,56.06
2022-08-11T13:05:20.318Z,56.10
2022-08-11T13:06:25.484Z,56.36
2022-08-11T13:07:28.355Z,56.36
2022-08-11T13:08:34.190Z,56.21
2022-08-11T13:09:37.621Z,56.24
2022-08-11T13:10:40.323Z,56.24
2022-08-11T13:11:55.740Z,56.22
2022-08-11T13:12:47.546Z,56.13
2022-08-11T13:13:57.144Z,56.14
2022-08-11T13:15:20.348Z,56.14
2022-08-11T13:16:28.021Z,56.01
2022-08-11T13:17:42.349Z,56.02
2022-08-11T13:18:36.171Z,56.03
2022-08-11T13:19:40.630Z,56.12
2022-08-11T13:20:44.088Z,56.15
2022-08-11T13:21:50.104Z,56.39
2022-08-11T13:22:58.809Z,56.43
2022-08-11T13:24:03.301Z,56.37
2022-08-11T13:25:08.938Z,56.48
2022-08-11T13:26:14.813Z,56.31
2022-08-11T13:27:17.853Z,56.36
2022-08-11T13:28:21.844Z,56.29
2022-08-11T13:29:25.163Z,56.46
2022-08-11T13:30:29.434Z,56.49
2022-08-11T13:31:32.779Z,56.47
2022-08-11T13:32:35.392Z,56.41
2022-08-11T13:33:42.426Z,56.27
2022-08-11T13:34:45.683Z,56.32
2022-08-11T13:35:49.934Z,56.24
2022-08-11T13:38:18.712Z,56.29
2022-08-11T13:39:15.064Z,56.35
2022-08-11T13:40:27.762Z,56.39
2022-08-11T13:41:25.964Z,56.56
2022-08-11T13:42:29.620Z,56.63
2022-08-11T13:43:32.290Z,56.77
2022-08-11T13:44:35.666Z,56.98
2022-08-11T13:45:38.127Z,56.88
2022-08-11T13:46:40.607Z,56.92
2022-08-11T13:47:44.724Z,57.04
2022-08-11T13:48:47.464Z,56.92
2022-08-11T13:49:50.788Z,57.14
2022-08-11T13:50:54.000Z,56.96
2022-08-11T13:51:57.541Z,56.89
2022-08-11T13:52:59.921Z,57.05
2022-08-11T13:54:10.304Z,56.92
2022-08-11T13:55:12.812Z,56.93
2022-08-11T13:56:21.816Z,57.40
2022-08-11T13:58:08.674Z,56.97
2022-08-11T13:58:40.211Z,56.90
2022-08-11T13:59:34.228Z,56.91
2022-08-11T14:00:38.809Z,56.86
2022-08-11T14:02:20.322Z,56.80
2022-08-11T14:03:02.229Z,56.80
2022-08-11T14:05:24.233Z,56.77
2022-08-11T14:06:28.554Z,56.71
2022-08-11T14:07:39.624Z,56.62
2022-08-11T14:08:47.269Z,56.66
2022-08-11T14:09:56.560Z,56.56
2022-08-11T14:10:53.159Z,56.64
2022-08-11T14:12:21.107Z,56.78
2022-08-11T14:13:12.218Z,56.49
2022-08-11T14:14:18.326Z,56.29
2022-08-11T14:15:23.435Z,56.23
2022-08-11T14:16:28.526Z,56.28
2022-08-11T14:17:38.414Z,56.29
2022-08-11T14:18:39.457Z,56.25
2022-08-11T14:19:42.056Z,56.33
2022-08-11T14:20:46.185Z,56.38
2022-08-11T14:21:54.129Z,56.31
2022-08-11T14:22:54.058Z,56.38
2022-08-11T14:23:56.431Z,56.50
2022-08-11T14:25:00.023Z,56.47
2022-08-11T14:26:02.931Z,56.42
2022-08-11T14:28:25.585Z,56.36
2022-08-11T14:28:31.125Z,56.36
2022-08-11T14:30:23.111Z,56.31
2022-08-11T14:31:27.188Z,56.35
2022-08-11T14:32:30.163Z,56.42
2022-08-11T14:33:58.585Z,56.32
2022-08-11T14:34:42.413Z,56.42
2022-08-11T14:35:48.796Z,56.46
2022-08-11T14:38:05.426Z,56.39
2022-08-11T14:40:23.270Z,56.76
2022-08-11T14:41:28.039Z,56.72
2022-08-11T14:42:30.347Z,56.76
2022-08-11T14:44:10.566Z,56.79
2022-08-11T14:44:37.175Z,56.93
2022-08-11T14:45:57.446Z,57.19
2022-08-11T14:46:44.392Z,57.16
2022-08-11T14:47:52.186Z,57.19
2022-08-11T14:48:54.612Z,57.20
2022-08-11T14:50:09.931Z,57.11
2022-08-11T14:51:02.033Z,57.14
2022-08-11T14:52:08.202Z,57.08
2022-08-11T14:53:10.962Z,57.06
2022-08-11T14:54:15.857Z,57.07
2022-08-11T14:55:18.735Z,57.10
2022-08-11T14:56:24.289Z,57.26
2022-08-11T14:57:56.173Z,57.36
2022-08-11T14:58:32.534Z,57.36
2022-08-11T14:59:35.801Z,57.40
2022-08-11T15:00:38.548Z,57.39
2022-08-11T15:01:40.982Z,57.36
2022-08-11T15:02:45.553Z,57.40
2022-08-11T15:04:27.336Z,57.41
2022-08-11T15:04:54.271Z,57.37
2022-08-11T15:05:58.651Z,57.44
2022-08-11T15:07:02.927Z,57.52
2022-08-11T15:08:05.258Z,57.63
2022-08-11T15:09:09.198Z,57.55
2022-08-11T15:10:14.067Z,57.48
2022-08-11T15:11:18.143Z,57.51
2022-08-11T15:12:31.271Z,57.46
2022-08-11T15:13:25.534Z,57.52
2022-08-11T15:14:27.946Z,57.38
2022-08-11T15:15:30.561Z,57.46
2022-08-11T15:16:33.126Z,57.41
2022-08-11T15:17:42.926Z,57.50
2022-08-11T15:18:41.009Z,57.42
2022-08-11T15:19:44.004Z,57.24
2022-08-11T15:20:46.741Z,57.18
2022-08-11T15:21:50.673Z,57.13
2022-08-11T15:22:53.268Z,57.12
2022-08-11T15:23:55.542Z,56.99
2022-08-11T15:24:59.291Z,57.00
2022-08-11T15:26:14.552Z,56.94
2022-08-11T15:27:20.231Z,56.70
2022-08-11T15:28:23.682Z,56.57
2022-08-11T15:29:28.497Z,56.50
2022-08-11T15:30:32.928Z,56.45
2022-08-11T15:31:35.902Z,56.42
2022-08-11T15:32:40.201Z,56.37
2022-08-11T15:33:43.373Z,56.50
2022-08-11T15:34:50.087Z,56.50
2022-08-11T15:35:52.644Z,56.41
2022-08-11T15:36:58.198Z,56.34
2022-08-11T15:38:01.846Z,56.21
2022-08-11T15:39:21.008Z,56.06
2022-08-11T15:40:31.437Z,56.04
2022-08-11T15:41:37.878Z,56.00
2022-08-11T15:43:55.715Z,56.05
2022-08-11T15:45:04.455Z,56.20
2022-08-11T15:46:22.608Z,56.15
2022-08-11T15:47:27.825Z,56.24
2022-08-11T15:48:35.834Z,56.36
2022-08-11T15:50:10.429Z,56.42
2022-08-11T15:50:50.912Z,56.52
2022-08-11T15:52:02.331Z,56.39
2022-08-11T15:53:08.377Z,56.39
2022-08-11T15:55:24.067Z,56.40
2022-08-11T15:56:28.479Z,56.34
2022-08-11T15:57:30.711Z,56.38
2022-08-11T15:58:43.190Z,56.37
2022-08-11T15:59:45.707Z,56.39
2022-08-11T16:02:11.215Z,56.46
2022-08-11T16:03:17.671Z,56.45
2022-08-11T16:04:21.701Z,56.48
2022-08-11T16:07:05.786Z,56.56
2022-08-11T16:08:09.268Z,56.64
2022-08-11T16:09:18.459Z,56.60
2022-08-11T16:11:41.117Z,56.72
2022-08-11T16:12:45.899Z,56.81
2022-08-11T16:13:48.820Z,56.80
2022-08-11T16:14:52.695Z,56.80
2022-08-11T16:15:56.575Z,56.88
2022-08-11T16:16:59.643Z,56.77
2022-08-11T16:18:04.464Z,56.72
2022-08-11T16:19:06.848Z,56.62
2022-08-11T16:20:11.784Z,56.47
2022-08-11T16:21:34.398Z,56.29
2022-08-11T16:22:30.035Z,56.18
2022-08-11T16:23:32.965Z,56.05
2022-08-11T16:27:01.998Z,55.90
2022-08-11T16:27:04.810Z,55.81
2022-08-11T16:29:30.725Z,55.48